Kissimmee, FL (34741)

2:34 PM EST on February 06, 2016 (GMT -0500)
Keatons Crest | | Change Station
CLOSE
Current Station
Personal Weather Station
Location: Orlando, FL
Elevation: 92 ft
Nearby Weather Stations

Elev 92 ft 28.35 °N, 81.46 °W | Updated 3 minutes ago

Light Rain
Light Rain Mist
61.7 °F
Feels Like 61.7 °F
N
1.1
Wind Variable Wind from ENE

Today
High -- | Low -- °F
--% Chance of Precip.
Yesterday
High -- | Low -- °F
Precip. -- in
Pressure 30.11 in
Visibility 5.0 miles
Clouds Scattered Clouds 3500 ft
Mostly Cloudy 6000 ft
Dew Point 60 °F
Humidity 94%
Rainfall 0.05 in
Snow Depth Not available.
7:10 AM 6:09 PM
Waning Crescent, 4% visible
METAR KISM 061850Z 36004KT 5SM -RABR SCT035 BKN060 17/16 A3011
Pressure 30.11 in
Visibility 5.0 miles
Clouds Scattered Clouds 3500 ft
Mostly Cloudy 6000 ft
Dew Point 60 °F
Humidity 94%
Rainfall 0.05 in
Snow Depth Not available.
7:10 AM 6:09 PM
Waning Crescent, 4% visible
METAR KISM 061850Z 36004KT 5SM -RABR SCT035 BKN060 17/16 A3011

10-Day Weather Forecast

Almanac

Astronomy

Feb. 06, 2016 Rise Set
Actual Time
Civil Twilight
Nautical Twilight
Astronomical Twilight
Moon
Length of Visible Light
Length of Day
Tomorrow will be .
, % of the Moon is Illuminated

Today's Extremes

State Highs State Lows

Community

WunderPhotos

Upload Photos

1,891,037 photos uploaded!

WunderBlog® & News

Nearby

Air Quality

  Air Quality AQ Index Pollutant
Not available.

Snow Depth

Station Depth Elevation

Earthquake Activity

City Distance Mag. Time & Date
Minimum magnitude displayed is 2.5.

Coastal Water Temperatures

Place Temperature

Stations

Nearby Weather Stations

Station Location Temp. Windchill Dew Point Humidity Wind Precip. Elev Updated Type
                   

Watches & Warnings

There are currently no watches in effect.